createdAt,value
2022-09-27T00:01:07.839Z,247.68
2022-09-27T00:03:34.495Z,245.30
2022-09-27T00:06:09.017Z,246.23
2022-09-27T00:08:37.028Z,241.37
2022-09-27T00:11:06.345Z,250.88
2022-09-27T00:13:33.427Z,250.63
2022-09-27T00:16:05.362Z,233.43
2022-09-27T00:18:33.514Z,239.10
2022-09-27T00:21:11.371Z,240.23
2022-09-27T00:23:39.308Z,238.45
2022-09-27T00:26:08.129Z,237.50
2022-09-27T00:28:34.930Z,242.57
2022-09-27T00:31:01.987Z,234.18
2022-09-27T00:33:28.676Z,238.27
2022-09-27T00:35:55.376Z,244.73
2022-09-27T00:38:22.007Z,239.77
2022-09-27T00:40:48.677Z,247.40
2022-09-27T00:43:22.444Z,239.85
2022-09-27T00:46:03.402Z,242.40
2022-09-27T00:48:33.031Z,232.80
2022-09-27T00:51:03.517Z,235.85
2022-09-27T00:53:37.826Z,242.30
2022-09-27T00:56:12.639Z,245.10
2022-09-27T00:58:45.085Z,234.68
2022-09-27T01:01:14.131Z,241.80
2022-09-27T01:03:45.215Z,235.80
2022-09-27T01:06:12.367Z,242.80
2022-09-27T01:08:39.329Z,241.23
2022-09-27T01:11:09.005Z,235.17
2022-09-27T01:13:49.194Z,227.70
2022-09-27T01:16:26.632Z,230.48
2022-09-27T01:19:16.606Z,234.60
2022-09-27T01:22:02.136Z,232.53
2022-09-27T01:24:48.909Z,229.82
2022-09-27T01:27:41.407Z,221.18
2022-09-27T01:30:29.662Z,225.20
2022-09-27T01:33:33.118Z,224.23
2022-09-27T01:36:32.112Z,226.48
2022-09-27T01:39:21.311Z,224.15
2022-09-27T01:42:22.967Z,221.40
2022-09-27T01:45:03.615Z,219.55
2022-09-27T01:47:45.436Z,225.73
2022-09-27T01:50:47.141Z,224.32
2022-09-27T01:53:34.287Z,218.85
2022-09-27T01:56:40.932Z,211.77
2022-09-27T01:59:21.077Z,219.85
2022-09-27T02:02:00.256Z,218.50
2022-09-27T02:04:38.809Z,216.85
2022-09-27T02:07:23.856Z,216.30
2022-09-27T02:09:59.754Z,221.80
2022-09-27T02:12:46.220Z,221.15
2022-09-27T02:15:15.214Z,222.57
2022-09-27T02:17:53.264Z,219.38
2022-09-27T02:20:30.162Z,221.32
2022-09-27T02:23:21.158Z,219.15
2022-09-27T02:26:02.747Z,218.57
2022-09-27T02:28:45.770Z,213.40
2022-09-27T02:31:20.226Z,216.07
2022-09-27T02:33:52.423Z,215.00
2022-09-27T02:36:20.261Z,217.27
2022-09-27T02:38:47.223Z,207.73
2022-09-27T02:41:18.697Z,215.32
2022-09-27T02:43:49.821Z,205.10
2022-09-27T02:46:53.159Z,209.00
2022-09-27T02:49:30.431Z,208.98
2022-09-27T02:52:50.901Z,219.73
2022-09-27T02:55:20.677Z,212.70
2022-09-27T02:58:31.824Z,219.05
2022-09-27T03:01:35.107Z,214.15
2022-09-27T03:04:38.478Z,225.75
2022-09-27T03:07:06.123Z,219.50
2022-09-27T03:09:48.027Z,218.00
2022-09-27T03:12:22.451Z,227.20
2022-09-27T03:14:49.707Z,220.85
2022-09-27T03:17:51.592Z,218.00
2022-09-27T03:20:31.453Z,211.50
2022-09-27T03:23:24.334Z,220.60
2022-09-27T03:25:51.817Z,218.23
2022-09-27T03:28:19.014Z,217.13
2022-09-27T03:30:46.505Z,219.65
2022-09-27T03:33:22.591Z,214.88
2022-09-27T03:35:57.468Z,217.63
2022-09-27T03:38:24.173Z,219.77
2022-09-27T03:40:51.113Z,213.80
2022-09-27T03:43:17.801Z,213.32
2022-09-27T03:45:47.216Z,202.80
2022-09-27T03:48:14.329Z,211.43
2022-09-27T03:50:41.216Z,205.63
2022-09-27T03:53:08.158Z,213.18
2022-09-27T03:55:35.651Z,209.65
2022-09-27T03:58:02.742Z,214.40
2022-09-27T04:00:32.687Z,211.70
2022-09-27T04:03:00.250Z,196.35
2022-09-27T04:05:28.806Z,207.18
2022-09-27T04:08:02.427Z,204.77
2022-09-27T04:10:31.686Z,202.68
2022-09-27T04:12:58.692Z,208.80
2022-09-27T04:15:29.218Z,200.43
2022-09-27T04:18:14.691Z,201.27
2022-09-27T04:21:07.231Z,202.23
2022-09-27T04:23:36.529Z,195.60
2022-09-27T04:26:03.698Z,189.35
2022-09-27T04:28:54.537Z,195.70
2022-09-27T04:31:22.297Z,198.87
2022-09-27T04:34:16.369Z,193.93
2022-09-27T04:36:43.139Z,182.57
2022-09-27T04:39:15.131Z,182.65
2022-09-27T04:41:45.015Z,177.98
2022-09-27T04:44:11.905Z,170.70
2022-09-27T04:46:41.327Z,169.10
2022-09-27T04:49:08.125Z,166.15
2022-09-27T04:51:36.341Z,171.48
2022-09-27T04:54:04.800Z,172.85
2022-09-27T04:56:34.869Z,174.07
2022-09-27T04:59:08.289Z,181.90
2022-09-27T05:01:37.115Z,177.10
2022-09-27T05:04:42.286Z,180.50
2022-09-27T05:07:10.112Z,179.15
2022-09-27T05:09:42.413Z,182.45
2022-09-27T05:12:09.269Z,204.30
2022-09-27T05:14:54.927Z,186.73
2022-09-27T05:17:43.773Z,179.05
2022-09-27T05:20:10.772Z,184.43
2022-09-27T05:22:44.088Z,173.63
2022-09-27T05:25:11.447Z,172.23
2022-09-27T05:27:38.927Z,171.10
2022-09-27T05:30:08.015Z,169.63
2022-09-27T05:32:50.677Z,174.40
2022-09-27T05:35:26.418Z,170.38
2022-09-27T05:37:59.261Z,176.00
2022-09-27T05:40:44.670Z,168.52
2022-09-27T05:43:12.125Z,165.35
2022-09-27T05:45:41.076Z,162.70
2022-09-27T05:48:08.264Z,168.45
2022-09-27T05:50:45.708Z,164.93
2022-09-27T05:53:13.403Z,176.50
2022-09-27T05:55:41.291Z,167.75
2022-09-27T05:58:10.293Z,176.07
2022-09-27T06:00:48.344Z,165.20
2022-09-27T06:03:51.373Z,163.60
2022-09-27T06:06:38.417Z,170.68
2022-09-27T06:09:11.058Z,161.52
2022-09-27T06:11:40.646Z,162.27
2022-09-27T06:14:11.685Z,158.93
2022-09-27T06:16:51.009Z,160.32
2022-09-27T06:19:17.787Z,164.30
2022-09-27T06:21:44.440Z,161.82
2022-09-27T06:24:12.661Z,163.27
2022-09-27T06:26:39.552Z,161.02
2022-09-27T06:29:30.312Z,169.47
2022-09-27T06:32:01.132Z,179.18
2022-09-27T06:34:41.699Z,179.57
2022-09-27T06:37:08.390Z,176.13
2022-09-27T06:39:35.226Z,177.13
2022-09-27T06:42:31.116Z,168.20
2022-09-27T06:45:10.744Z,171.43
2022-09-27T06:47:57.043Z,193.13
2022-09-27T06:50:31.112Z,174.07
2022-09-27T06:52:57.852Z,170.47
2022-09-27T06:55:25.342Z,169.27
2022-09-27T06:58:15.330Z,169.13
2022-09-27T07:00:54.371Z,167.77
2022-09-27T07:03:43.238Z,173.60
2022-09-27T07:06:24.286Z,174.45
2022-09-27T07:09:08.546Z,179.57
2022-09-27T07:11:36.758Z,179.48
2022-09-27T07:14:08.175Z,169.63
2022-09-27T07:16:34.990Z,178.55
2022-09-27T07:19:05.521Z,185.82
2022-09-27T07:21:33.238Z,183.82
2022-09-27T07:24:00.495Z,167.83
2022-09-27T07:26:27.721Z,173.10
2022-09-27T07:28:54.805Z,221.48
2022-09-27T07:31:22.598Z,188.80
2022-09-27T07:33:49.262Z,170.52
2022-09-27T07:36:16.012Z,171.88
2022-09-27T07:38:44.739Z,171.63
2022-09-27T07:41:14.135Z,173.32
2022-09-27T07:43:45.096Z,169.53
2022-09-27T07:46:13.464Z,159.18
2022-09-27T07:48:51.699Z,164.48
2022-09-27T07:51:37.021Z,168.13
2022-09-27T07:54:31.422Z,171.82
2022-09-27T07:57:16.642Z,171.48
2022-09-27T07:59:47.698Z,187.20
2022-09-27T08:02:18.337Z,162.13
2022-09-27T08:04:49.103Z,168.52
2022-09-27T08:07:16.363Z,162.95
2022-09-27T08:09:45.896Z,166.67
2022-09-27T08:12:13.274Z,164.30
2022-09-27T08:14:45.082Z,168.30
2022-09-27T08:17:19.386Z,168.05
2022-09-27T08:20:06.943Z,172.95
2022-09-27T08:23:06.182Z,168.65
2022-09-27T08:25:40.094Z,171.70
2022-09-27T08:28:27.377Z,180.60
2022-09-27T08:31:00.245Z,179.20
2022-09-27T08:33:31.945Z,177.15
2022-09-27T08:35:59.487Z,169.18
2022-09-27T08:38:26.161Z,169.60
2022-09-27T08:41:20.369Z,179.65
2022-09-27T08:44:04.818Z,158.98
2022-09-27T08:47:08.943Z,170.98
2022-09-27T08:49:38.733Z,172.77
2022-09-27T08:52:13.189Z,164.68
2022-09-27T08:54:40.294Z,165.75
2022-09-27T08:57:16.957Z,173.13
2022-09-27T08:59:55.095Z,169.32
2022-09-27T09:02:27.436Z,179.35
2022-09-27T09:05:03.167Z,182.33
2022-09-27T09:07:48.059Z,219.70
2022-09-27T09:10:45.664Z,179.15
2022-09-27T09:13:41.135Z,177.20
2022-09-27T09:16:08.551Z,180.18
2022-09-27T09:19:01.218Z,185.07
2022-09-27T09:21:54.946Z,193.17
2022-09-27T09:24:37.018Z,197.83
2022-09-27T09:27:33.874Z,197.68
2022-09-27T09:30:13.038Z,198.85
2022-09-27T09:33:08.237Z,212.52
2022-09-27T09:35:39.402Z,214.05
2022-09-27T09:38:18.509Z,204.35
2022-09-27T09:40:52.076Z,210.27
2022-09-27T09:43:31.202Z,211.20
2022-09-27T09:46:10.394Z,199.77
2022-09-27T09:48:42.083Z,204.80
2022-09-27T09:51:19.456Z,201.23
2022-09-27T09:53:51.569Z,191.65
2022-09-27T09:56:22.714Z,205.98
2022-09-27T09:59:32.602Z,220.53
2022-09-27T10:02:15.032Z,202.80
2022-09-27T10:04:41.866Z,196.25
2022-09-27T10:07:08.661Z,195.82
2022-09-27T10:09:36.494Z,197.30
2022-09-27T10:12:22.079Z,200.98
2022-09-27T10:14:51.887Z,247.30
2022-09-27T10:17:25.366Z,206.35
2022-09-27T10:19:54.208Z,202.85
2022-09-27T10:22:25.159Z,179.52
2022-09-27T10:25:08.010Z,196.70
2022-09-27T10:27:56.136Z,193.27
2022-09-27T10:30:33.014Z,187.70
2022-09-27T10:33:07.752Z,186.52
2022-09-27T10:35:45.095Z,173.88
2022-09-27T10:38:20.478Z,187.63
2022-09-27T10:40:53.183Z,182.38
2022-09-27T10:43:29.388Z,173.10
2022-09-27T10:46:23.669Z,184.53
2022-09-27T10:49:26.825Z,177.38
2022-09-27T10:52:06.440Z,179.02
2022-09-27T10:54:37.798Z,168.65
2022-09-27T10:57:23.125Z,173.82
2022-09-27T10:59:56.506Z,171.20
2022-09-27T11:02:35.818Z,179.15
2022-09-27T11:05:15.625Z,186.55
2022-09-27T11:07:55.518Z,183.73
2022-09-27T11:10:37.345Z,189.90
2022-09-27T11:13:12.492Z,191.77
2022-09-27T11:16:07.541Z,187.52
2022-09-27T11:19:04.505Z,200.77
2022-09-27T11:21:40.135Z,192.85
2022-09-27T11:24:32.599Z,195.52
2022-09-27T11:27:33.158Z,210.80
2022-09-27T11:30:09.749Z,207.25
2022-09-27T11:34:02.369Z,208.50
2022-09-27T11:36:57.742Z,208.80
2022-09-27T11:39:51.178Z,225.85
2022-09-27T11:42:33.300Z,211.70
2022-09-27T11:45:56.378Z,206.97
2022-09-27T11:48:27.554Z,215.25
2022-09-27T11:51:18.967Z,215.15
2022-09-27T11:53:51.635Z,208.20
2022-09-27T11:56:29.480Z,203.82
2022-09-27T11:59:04.994Z,192.65
2022-09-27T12:01:50.287Z,203.23
2022-09-27T12:04:44.862Z,204.87
2022-09-27T12:07:25.531Z,200.25
2022-09-27T12:10:00.209Z,206.45
2022-09-27T12:12:31.969Z,219.10
2022-09-27T12:15:07.167Z,186.60
2022-09-27T12:17:43.199Z,207.35
2022-09-27T12:20:24.598Z,186.70
2022-09-27T12:22:59.934Z,181.02
2022-09-27T12:26:03.147Z,188.82
2022-09-27T12:28:54.222Z,187.02
2022-09-27T12:31:30.497Z,190.77
2022-09-27T12:34:19.334Z,200.30
2022-09-27T12:36:56.030Z,214.90
2022-09-27T12:39:41.782Z,201.30
2022-09-27T12:42:32.022Z,193.52
2022-09-27T12:45:01.913Z,196.98
2022-09-27T12:48:07.028Z,185.77
2022-09-27T12:50:46.566Z,189.73
2022-09-27T12:53:23.367Z,207.23
2022-09-27T12:56:17.214Z,194.85
2022-09-27T12:59:02.730Z,180.48
2022-09-27T13:01:59.973Z,175.98
2022-09-27T13:04:38.673Z,181.07
2022-09-27T13:07:17.759Z,214.05
2022-09-27T13:10:01.807Z,195.63
2022-09-27T13:12:32.267Z,186.13
2022-09-27T13:15:15.062Z,185.65
2022-09-27T13:17:42.370Z,192.75
2022-09-27T13:20:31.049Z,185.15
2022-09-27T13:23:00.006Z,184.63
2022-09-27T13:25:55.454Z,186.80
2022-09-27T13:28:48.148Z,173.68
2022-09-27T13:31:59.883Z,193.57
2022-09-27T13:34:41.643Z,165.90
2022-09-27T13:37:28.847Z,171.23
2022-09-27T13:40:15.141Z,161.27
2022-09-27T13:43:11.274Z,168.07
2022-09-27T13:45:56.276Z,163.40
2022-09-27T13:48:43.300Z,172.70
2022-09-27T13:51:16.693Z,177.23
2022-09-27T13:53:55.108Z,179.97
2022-09-27T13:56:37.821Z,171.52
2022-09-27T13:59:13.761Z,182.15
2022-09-27T14:02:16.868Z,184.82
2022-09-27T14:04:51.508Z,197.57
2022-09-27T14:07:26.801Z,238.23
2022-09-27T14:10:00.473Z,217.13
2022-09-27T14:12:36.689Z,220.82
2022-09-27T14:15:14.025Z,223.95
2022-09-27T14:17:45.980Z,208.30
2022-09-27T14:20:52.636Z,239.27
2022-09-27T14:23:39.498Z,217.88
2022-09-27T14:26:06.564Z,227.48
2022-09-27T14:28:41.683Z,215.40
2022-09-27T14:31:31.378Z,209.43
2022-09-27T14:34:13.142Z,202.50
2022-09-27T14:37:04.006Z,185.90
2022-09-27T14:39:37.948Z,201.75
2022-09-27T14:42:28.511Z,196.00
2022-09-27T14:45:01.492Z,201.45
2022-09-27T14:47:32.274Z,206.13
2022-09-27T14:50:16.948Z,209.80
2022-09-27T14:52:43.726Z,207.02
2022-09-27T14:55:19.113Z,191.05
2022-09-27T14:57:56.687Z,186.82
2022-09-27T15:00:26.247Z,170.15
2022-09-27T15:02:55.885Z,177.90
2022-09-27T15:05:27.305Z,193.32
2022-09-27T15:07:58.458Z,197.32
2022-09-27T15:10:27.829Z,210.43
2022-09-27T15:13:01.149Z,180.90
2022-09-27T15:15:33.850Z,216.77
2022-09-27T15:18:01.826Z,208.68
2022-09-27T15:20:32.332Z,187.57
2022-09-27T15:23:03.659Z,177.98
2022-09-27T15:25:36.926Z,183.32
2022-09-27T15:28:20.127Z,172.43
2022-09-27T15:30:57.335Z,168.35
2022-09-27T15:33:27.209Z,176.70
2022-09-27T15:35:56.275Z,176.43
2022-09-27T15:38:25.479Z,169.80
2022-09-27T15:40:52.123Z,168.70
2022-09-27T15:51:51.677Z,157.57
2022-09-27T15:54:22.371Z,147.43
2022-09-27T15:56:55.038Z,155.27
2022-09-27T15:59:27.837Z,158.18
2022-09-27T16:01:56.792Z,172.07
2022-09-27T16:04:23.552Z,170.65
2022-09-27T16:06:50.403Z,164.43
2022-09-27T16:09:18.930Z,174.73
2022-09-27T16:11:47.573Z,162.82
2022-09-27T16:14:18.290Z,150.10
2022-09-27T16:16:47.636Z,151.90
2022-09-27T16:19:14.311Z,164.05
2022-09-27T16:21:42.912Z,166.57
2022-09-27T16:24:12.638Z,160.25
2022-09-27T16:26:41.087Z,188.40
2022-09-27T16:29:13.608Z,179.77
2022-09-27T16:31:41.295Z,182.13
2022-09-27T16:34:13.769Z,170.98
2022-09-27T16:36:41.873Z,160.13
2022-09-27T16:39:12.767Z,166.82
2022-09-27T16:41:43.501Z,147.57
2022-09-27T16:44:12.922Z,142.83
2022-09-27T16:46:41.505Z,155.68
2022-09-27T16:49:28.790Z,188.02
2022-09-27T16:52:01.356Z,176.38
2022-09-27T16:54:29.408Z,166.98
2022-09-27T16:56:57.750Z,178.52
2022-09-27T16:59:27.716Z,182.40
2022-09-27T17:01:58.078Z,203.05
2022-09-27T17:04:27.603Z,177.27
2022-09-27T17:06:56.369Z,174.43
2022-09-27T17:09:23.163Z,178.30
2022-09-27T17:11:50.252Z,177.07
2022-09-27T17:14:18.024Z,174.95
2022-09-27T17:16:46.011Z,170.68
2022-09-27T17:19:14.283Z,159.93
2022-09-27T17:21:42.386Z,161.82
2022-09-27T17:24:09.679Z,158.40
2022-09-27T17:26:36.637Z,150.63
2022-09-27T17:29:07.397Z,177.90
2022-09-27T17:31:37.472Z,160.85
2022-09-27T17:34:04.561Z,159.52
2022-09-27T17:36:37.718Z,167.77
2022-09-27T17:39:05.211Z,180.88
2022-09-27T17:41:37.589Z,165.77
2022-09-27T17:44:09.643Z,162.77
2022-09-27T17:46:37.279Z,166.40
2022-09-27T17:49:23.182Z,164.13
2022-09-27T17:51:52.622Z,167.02
2022-09-27T17:54:22.685Z,163.70
2022-09-27T17:56:52.169Z,159.85
2022-09-27T17:59:18.858Z,161.90
2022-09-27T18:01:47.761Z,161.73
2022-09-27T18:04:17.108Z,160.50
2022-09-27T18:06:46.584Z,157.35
2022-09-27T18:09:16.039Z,160.80
2022-09-27T18:11:44.250Z,161.63
2022-09-27T18:14:11.228Z,155.27
2022-09-27T18:16:42.868Z,162.70
2022-09-27T18:19:17.050Z,165.07
2022-09-27T18:21:45.240Z,151.38
2022-09-27T18:24:14.071Z,152.88
2022-09-27T18:26:41.370Z,152.35
2022-09-27T18:29:11.663Z,158.33
2022-09-27T18:31:40.173Z,159.98
2022-09-27T18:34:07.667Z,161.60
2022-09-27T18:36:34.466Z,169.90
2022-09-27T18:39:04.400Z,155.15
2022-09-27T18:41:35.285Z,152.65
2022-09-27T18:44:06.496Z,161.75
2022-09-27T18:46:36.847Z,167.98
2022-09-27T18:49:06.178Z,162.15
2022-09-27T18:51:37.902Z,169.83
2022-09-27T18:56:59.917Z,154.13
2022-09-27T18:59:31.993Z,154.93
2022-09-27T19:01:58.676Z,158.68
2022-09-27T19:04:28.323Z,149.48
2022-09-27T19:06:56.541Z,152.80
2022-09-27T19:09:26.988Z,151.98
2022-09-27T19:11:53.976Z,155.23
2022-09-27T19:14:22.568Z,160.23
2022-09-27T19:16:49.613Z,155.57
2022-09-27T19:19:17.273Z,152.57
2022-09-27T19:21:44.534Z,149.43
2022-09-27T19:24:11.794Z,149.80
2022-09-27T19:26:38.593Z,157.10
2022-09-27T19:29:07.315Z,159.63
2022-09-27T19:31:38.044Z,167.85
2022-09-27T19:34:04.803Z,172.43
2022-09-27T19:36:34.150Z,163.27
2022-09-27T19:39:03.782Z,161.50
2022-09-27T19:41:31.258Z,165.60
2022-09-27T19:43:59.646Z,172.23
2022-09-27T19:46:27.017Z,173.20
2022-09-27T19:48:57.111Z,167.93
2022-09-27T19:51:26.141Z,175.02
2022-09-27T19:53:57.033Z,174.27
2022-09-27T19:56:24.284Z,176.60
2022-09-27T19:58:51.199Z,174.37
2022-09-27T20:01:23.126Z,180.80
2022-09-27T20:03:53.644Z,175.82
2022-09-27T20:06:23.721Z,183.43
2022-09-27T20:08:53.567Z,177.65
2022-09-27T20:11:23.654Z,177.38
2022-09-27T20:13:52.871Z,185.50
2022-09-27T20:16:24.580Z,181.30
2022-09-27T20:18:56.155Z,184.90
2022-09-27T20:21:35.444Z,187.10
2022-09-27T20:24:05.757Z,174.95
2022-09-27T20:26:38.010Z,179.10
2022-09-27T20:29:06.391Z,176.70
2022-09-27T20:32:01.527Z,175.95
2022-09-27T20:34:28.995Z,181.43
2022-09-27T20:36:55.919Z,188.13
2022-09-27T20:39:23.772Z,193.70
2022-09-27T20:41:51.051Z,196.38
2022-09-27T20:44:21.272Z,197.48
2022-09-27T20:46:50.279Z,206.63
2022-09-27T20:52:02.476Z,207.20
2022-09-27T20:54:29.617Z,203.48
2022-09-27T20:56:57.202Z,204.17
2022-09-27T20:59:25.259Z,207.68
2022-09-27T21:01:53.476Z,211.68
2022-09-27T21:04:27.292Z,214.23
2022-09-27T21:06:54.216Z,221.98
2022-09-27T21:09:21.245Z,226.35
2022-09-27T21:11:49.509Z,218.27
2022-09-27T21:14:17.664Z,223.68
2022-09-27T21:16:44.681Z,221.65
2022-09-27T21:19:11.600Z,236.32
2022-09-27T21:21:39.081Z,223.25
2022-09-27T21:24:06.130Z,220.65
2022-09-27T21:26:34.027Z,223.25
2022-09-27T21:29:09.533Z,227.07
2022-09-27T21:31:41.663Z,227.68
2022-09-27T21:34:08.620Z,231.55
2022-09-27T21:36:38.267Z,231.23
2022-09-27T21:39:09.661Z,226.73
2022-09-27T21:41:39.791Z,222.63
2022-09-27T21:44:09.636Z,227.60
2022-09-27T21:46:40.436Z,226.02
2022-09-27T21:49:08.174Z,228.73
2022-09-27T21:51:41.316Z,230.32
2022-09-27T21:54:11.256Z,238.35
2022-09-27T21:56:39.521Z,239.82
2022-09-27T21:59:09.511Z,238.57
2022-09-27T22:01:37.361Z,240.05
2022-09-27T22:04:09.133Z,239.68
2022-09-27T22:06:44.952Z,248.43
2022-09-27T22:09:19.133Z,244.13
2022-09-27T22:11:50.210Z,236.55
2022-09-27T22:14:18.161Z,230.20
2022-09-27T22:16:45.172Z,233.52
2022-09-27T22:19:15.479Z,242.20
2022-09-27T22:21:45.173Z,237.98
2022-09-27T22:24:15.025Z,237.93
2022-09-27T22:26:45.484Z,245.82
2022-09-27T22:29:15.581Z,232.38
2022-09-27T22:31:42.391Z,245.73
2022-09-27T22:34:20.594Z,224.55
2022-09-27T22:36:47.185Z,230.43
2022-09-27T22:39:13.938Z,229.25
2022-09-27T22:41:42.783Z,250.95
2022-09-27T22:44:09.396Z,252.40
2022-09-27T22:46:38.501Z,248.15
2022-09-27T22:49:05.092Z,250.45
2022-09-27T22:51:31.618Z,254.20
2022-09-27T22:53:58.310Z,254.43
2022-09-27T22:56:25.333Z,259.10
2022-09-27T22:58:51.971Z,260.98
2022-09-27T23:01:21.553Z,256.15
2022-09-27T23:03:55.735Z,248.27
2022-09-27T23:06:23.293Z,249.32
2022-09-27T23:08:51.297Z,256.42
2022-09-27T23:11:20.355Z,250.60
2022-09-27T23:13:48.452Z,251.90
2022-09-27T23:16:20.881Z,249.90
2022-09-27T23:18:50.335Z,242.50
2022-09-27T23:21:16.934Z,250.37
2022-09-27T23:23:45.196Z,255.68
2022-09-27T23:26:15.007Z,259.25
2022-09-27T23:28:42.356Z,258.88
2022-09-27T23:31:08.964Z,259.67
2022-09-27T23:33:43.763Z,260.75
2022-09-27T23:36:16.848Z,266.38
2022-09-27T23:38:45.607Z,260.45
2022-09-27T23:41:13.402Z,265.40
2022-09-27T23:43:40.028Z,266.23
2022-09-27T23:46:09.108Z,262.27
2022-09-27T23:48:39.879Z,262.95
2022-09-27T23:51:08.877Z,265.23
2022-09-27T23:53:36.412Z,254.95
2022-09-27T23:56:05.794Z,255.45
2022-09-27T23:58:40.527Z,260.07
